Time;durP1;ratioP1;P1;durP2;ratioP2;P2;SDS_P1;SDS_P2;PMS_P1;PMS_P2;Temp;Humidity;BMP_temperature;BMP_pressure;BME280_temperature;BME280_humidity;BME280_pressure;Samples;Min_cycle;Max_cycle;Signal;HPM_P1;HPM_P2
2024/02/23 00:01:23;;;;;;;1.60;1.23;;;7.30;98.20;;;;;;5055924;28;20673;-87
2024/02/23 00:03:59;;;;;;;1.60;1.20;;;7.30;98.20;;;;;;5081258;28;20484;-87
2024/02/23 00:06:27;;;;;;;1.60;1.20;;;7.20;98.20;;;;;;5076533;28;20470;-86
2024/02/23 00:08:59;;;;;;;1.60;1.30;;;7.20;98.20;;;;;;5090597;28;20469;-90
2024/02/23 00:11:49;;;;;;;1.60;1.23;;;7.10;98.20;;;;;;5075146;28;20483;-86
2024/02/23 00:30:28;;;;;;;1.60;1.30;;;6.60;98.20;;;;;;5073379;28;20454;-87
2024/02/23 04:24:02;;;;;;;1.67;1.43;;;5.60;98.20;;;;;;6110452;23;20436;-83
2024/02/23 04:26:29;;;;;;;1.60;1.30;;;5.60;98.20;;;;;;5024159;28;20483;-85
2024/02/23 04:28:55;;;;;;;1.70;1.50;;;5.60;98.20;;;;;;5051066;28;20802;-80
2024/02/23 04:31:22;;;;;;;1.60;1.30;;;5.60;98.20;;;;;;5038738;28;20480;-84
2024/02/23 04:33:49;;;;;;;1.60;1.30;;;5.60;98.20;;;;;;5038617;28;20492;-83
2024/02/23 04:36:19;;;;;;;1.60;1.40;;;5.70;98.20;;;;;;5030784;28;20475;-83
2024/02/23 04:38:46;;;;;;;1.60;1.30;;;5.80;98.20;;;;;;5039154;28;20501;-81
2024/02/23 04:41:14;;;;;;;1.60;1.30;;;5.90;98.20;;;;;;5036908;28;20486;-81
2024/02/23 04:43:41;;;;;;;1.60;1.30;;;5.90;98.20;;;;;;5049564;28;21142;-85
2024/02/23 04:46:08;;;;;;;1.60;1.30;;;5.90;98.20;;;;;;5042947;28;20479;-81
2024/02/23 04:48:36;;;;;;;1.60;1.30;;;6.00;98.20;;;;;;5050631;28;20501;-81
2024/02/23 04:51:03;;;;;;;1.60;1.33;;;6.00;98.20;;;;;;5041150;28;20461;-82
2024/02/23 04:53:30;;;;;;;1.60;1.30;;;6.10;98.20;;;;;;5050994;28;20529;-82
2024/02/23 04:55:56;;;;;;;1.60;1.30;;;6.10;98.20;;;;;;5026000;28;20474;-81
2024/02/23 04:58:25;;;;;;;2.63;2.43;;;6.10;98.20;;;;;;5059728;28;20467;-80
2024/02/23 05:00:51;;;;;;;1.60;1.40;;;6.10;98.20;;;;;;5038021;28;20496;-81
2024/02/23 05:03:18;;;;;;;1.60;1.30;;;6.10;98.20;;;;;;5044270;28;20558;-81
2024/02/23 05:05:45;;;;;;;1.60;1.30;;;6.10;98.20;;;;;;5057227;28;20478;-81
2024/02/23 05:08:12;;;;;;;1.60;1.30;;;6.00;98.20;;;;;;5034008;28;20477;-81
2024/02/23 05:10:39;;;;;;;1.70;1.40;;;6.00;98.20;;;;;;5050074;28;20458;-81
2024/02/23 05:13:05;;;;;;;1.60;1.30;;;6.00;98.20;;;;;;5045111;28;20829;-81
2024/02/23 05:15:34;;;;;;;1.60;1.40;;;6.00;98.20;;;;;;5053984;28;20497;-81
2024/02/23 05:18:02;;;;;;;1.60;1.40;;;6.00;98.20;;;;;;5038866;28;20482;-82
2024/02/23 05:20:28;;;;;;;1.60;1.30;;;6.00;98.20;;;;;;5056036;28;20458;-82
2024/02/23 05:22:55;;;;;;;1.70;1.50;;;6.00;98.20;;;;;;5040750;28;20487;-81
2024/02/23 05:25:22;;;;;;;1.60;1.40;;;6.10;98.20;;;;;;5049139;28;20483;-81
2024/02/23 05:27:49;;;;;;;1.60;1.30;;;6.10;98.20;;;;;;5055785;28;20483;-81
2024/02/23 05:30:16;;;;;;;1.60;1.30;;;6.10;98.20;;;;;;5040036;28;20469;-83
2024/02/23 05:32:44;;;;;;;1.60;1.30;;;6.10;98.20;;;;;;5026656;28;21097;-81
2024/02/23 05:35:13;;;;;;;1.60;1.30;;;6.10;98.20;;;;;;5037059;28;20482;-81
2024/02/23 05:37:41;;;;;;;1.60;1.40;;;6.10;98.20;;;;;;5040119;28;21044;-81
2024/02/23 05:40:10;;;;;;;1.60;1.30;;;6.10;98.20;;;;;;5053695;28;20475;-82
2024/02/23 05:42:37;;;;;;;1.60;1.30;;;6.10;98.20;;;;;;5053711;28;20485;-80
2024/02/23 05:45:08;;;;;;;1.60;1.40;;;6.10;98.20;;;;;;5057169;28;20992;-81
2024/02/23 05:47:35;;;;;;;1.60;1.40;;;6.10;98.20;;;;;;5045144;28;20481;-80
2024/02/23 05:50:03;;;;;;;1.60;1.40;;;6.10;98.20;;;;;;5047962;28;20467;-81
2024/02/23 05:52:31;;;;;;;1.60;1.30;;;6.10;98.20;;;;;;5045758;28;20565;-82
2024/02/23 05:54:59;;;;;;;2.87;2.67;;;6.10;98.20;;;;;;5057715;28;20488;-82
2024/02/23 05:57:26;;;;;;;1.60;1.30;;;6.10;98.20;;;;;;5035927;28;20543;-82
2024/02/23 05:59:55;;;;;;;1.60;1.40;;;6.10;98.20;;;;;;5036857;28;20538;-81
2024/02/23 06:02:24;;;;;;;1.60;1.20;;;6.10;98.20;;;;;;5031296;28;20755;-83
2024/02/23 06:04:51;;;;;;;1.60;1.30;;;6.10;98.20;;;;;;5046048;28;20582;-81
2024/02/23 06:07:21;;;;;;;1.70;1.40;;;6.10;98.20;;;;;;5050549;28;20474;-82
2024/02/23 06:09:48;;;;;;;1.60;1.40;;;6.10;98.20;;;;;;5057424;28;20546;-81
2024/02/23 06:12:24;;;;;;;1.60;1.30;;;6.10;98.20;;;;;;5052887;28;21104;-79
2024/02/23 06:14:51;;;;;;;1.60;1.47;;;6.10;98.20;;;;;;5047984;28;20482;-82
2024/02/23 06:17:19;;;;;;;1.60;1.30;;;6.10;98.20;;;;;;5044841;28;20478;-80
2024/02/23 06:19:46;;;;;;;1.60;1.30;;;6.20;98.20;;;;;;5056948;28;20462;-81
2024/02/23 06:22:13;;;;;;;1.60;1.20;;;6.10;98.20;;;;;;5052621;28;20542;-80
2024/02/23 06:24:41;;;;;;;1.60;1.30;;;6.10;98.20;;;;;;5043043;28;20539;-81
2024/02/23 06:27:08;;;;;;;1.60;1.30;;;6.20;98.20;;;;;;5040240;28;20766;-81
2024/02/23 06:29:37;;;;;;;1.60;1.30;;;6.20;98.20;;;;;;5053644;28;20454;-80
2024/02/23 06:32:04;;;;;;;1.60;1.30;;;6.20;98.20;;;;;;5039559;28;20487;-81
2024/02/23 06:34:31;;;;;;;1.60;1.30;;;6.20;98.20;;;;;;5054198;28;21008;-81
2024/02/23 06:36:58;;;;;;;1.60;1.30;;;6.30;98.20;;;;;;5041461;28;20560;-81
2024/02/23 06:39:26;;;;;;;1.60;1.20;;;6.30;98.20;;;;;;5047230;28;20672;-80
2024/02/23 06:41:54;;;;;;;1.60;1.30;;;6.30;98.20;;;;;;5047173;28;20504;-81
2024/02/23 06:44:21;;;;;;;1.60;1.30;;;6.30;98.20;;;;;;5052517;28;20495;-80
2024/02/23 06:46:47;;;;;;;1.60;1.30;;;6.30;98.20;;;;;;5035559;28;20481;-81
2024/02/23 06:49:14;;;;;;;4.90;4.60;;;6.30;98.20;;;;;;5044825;28;20472;-81
2024/02/23 06:51:42;;;;;;;1.60;1.30;;;6.30;98.20;;;;;;5027325;28;21275;-81
2024/02/23 06:54:09;;;;;;;1.60;1.30;;;6.20;98.20;;;;;;5036218;28;20813;-79
2024/02/23 06:56:36;;;;;;;1.60;1.30;;;6.20;98.20;;;;;;5026599;28;20486;-82
2024/02/23 06:59:04;;;;;;;1.60;1.40;;;6.10;98.20;;;;;;5052614;28;20470;-81
2024/02/23 07:01:33;;;;;;;1.60;1.23;;;6.10;98.20;;;;;;5036519;28;20474;-82
2024/02/23 07:04:00;;;;;;;1.60;1.30;;;6.00;98.20;;;;;;5046820;28;20462;-83
2024/02/23 07:06:28;;;;;;;1.60;1.40;;;6.00;98.20;;;;;;5043719;28;20478;-81
2024/02/23 07:08:55;;;;;;;1.60;1.30;;;6.10;98.20;;;;;;5049265;28;20510;-83
2024/02/23 07:11:22;;;;;;;1.60;1.40;;;6.10;98.20;;;;;;5042257;28;20478;-80
2024/02/23 07:13:49;;;;;;;1.60;1.30;;;6.10;98.20;;;;;;5048363;28;20573;-82
2024/02/23 07:16:16;;;;;;;1.60;1.23;;;6.10;98.20;;;;;;5037159;28;20478;-82
2024/02/23 07:18:43;;;;;;;1.60;1.30;;;6.10;98.20;;;;;;5049300;28;20486;-81
2024/02/23 07:21:11;;;;;;;1.60;1.40;;;6.10;98.20;;;;;;5042598;28;20504;-81
2024/02/23 07:23:38;;;;;;;1.60;1.20;;;6.10;98.20;;;;;;5043130;28;20466;-80
2024/02/23 07:26:05;;;;;;;1.60;1.30;;;6.20;98.20;;;;;;5034306;28;20820;-80
2024/02/23 07:28:33;;;;;;;1.60;1.30;;;6.30;98.20;;;;;;5049085;28;21147;-81
2024/02/23 07:30:59;;;;;;;1.60;1.30;;;6.30;98.20;;;;;;5043918;28;20466;-80
2024/02/23 07:33:28;;;;;;;1.60;1.30;;;6.30;98.20;;;;;;5045552;28;20455;-80
2024/02/23 07:35:54;;;;;;;1.60;1.30;;;6.40;98.20;;;;;;5036874;28;20478;-80
2024/02/23 07:38:21;;;;;;;1.60;1.30;;;6.50;98.20;;;;;;5046736;28;20989;-81
2024/02/23 07:40:48;;;;;;;1.60;1.30;;;6.60;98.20;;;;;;5038706;28;20463;-80
2024/02/23 07:43:16;;;;;;;1.60;1.30;;;6.70;98.20;;;;;;5054516;28;20529;-81
2024/02/23 07:45:43;;;;;;;1.60;1.20;;;6.80;98.20;;;;;;5049751;28;20846;-81
2024/02/23 07:48:10;;;;;;;1.60;1.30;;;6.90;98.20;;;;;;5042573;28;20474;-80
2024/02/23 07:50:38;;;;;;;1.70;1.43;;;7.00;98.20;;;;;;5051916;28;20454;-81
2024/02/23 07:53:06;;;;;;;1.60;1.20;;;7.10;98.20;;;;;;5039513;28;20504;-82
2024/02/23 07:55:32;;;;;;;1.60;1.30;;;7.10;98.20;;;;;;5053600;28;20478;-81
2024/02/23 07:58:01;;;;;;;1.60;1.27;;;7.20;98.20;;;;;;5041958;28;20484;-80
2024/02/23 08:00:28;;;;;;;1.60;1.30;;;7.30;98.20;;;;;;5042143;28;20467;-80
2024/02/23 08:02:56;;;;;;;1.60;1.20;;;7.50;98.20;;;;;;5037396;28;20517;-78
2024/02/23 08:05:23;;;;;;;1.60;1.30;;;7.50;98.20;;;;;;5048088;28;20680;-80
2024/02/23 08:07:51;;;;;;;1.60;1.23;;;7.70;98.20;;;;;;5040307;28;20509;-83
2024/02/23 08:10:18;;;;;;;1.60;1.20;;;7.90;98.20;;;;;;5048292;28;20460;-82
2024/02/23 08:12:45;;;;;;;1.60;1.30;;;8.10;98.20;;;;;;5041873;28;20482;-83
2024/02/23 08:15:12;;;;;;;1.60;1.20;;;8.30;98.20;;;;;;5057181;28;20553;-79
2024/02/23 08:17:38;;;;;;;1.60;1.20;;;8.50;98.20;;;;;;5035340;28;20594;-79
2024/02/23 08:20:07;;;;;;;1.60;1.30;;;8.60;98.20;;;;;;5049966;28;20566;-81
2024/02/23 08:22:34;;;;;;;1.60;1.30;;;8.60;98.20;;;;;;5044892;28;20485;-80
2024/02/23 08:25:02;;;;;;;1.60;1.20;;;8.50;98.20;;;;;;5048403;28;21546;-81
2024/02/23 08:27:29;;;;;;;1.60;1.20;;;8.50;98.20;;;;;;5038674;28;20542;-81
2024/02/23 08:29:56;;;;;;;1.60;1.30;;;8.50;98.20;;;;;;5055858;28;20497;-81
2024/02/23 08:32:22;;;;;;;1.60;1.20;;;8.50;98.20;;;;;;5053228;28;20466;-81
2024/02/23 08:34:50;;;;;;;1.60;1.20;;;8.40;98.20;;;;;;5049305;28;20555;-81
2024/02/23 08:37:16;;;;;;;1.60;1.20;;;8.40;98.20;;;;;;5044460;28;20482;-82
2024/02/23 08:39:44;;;;;;;1.60;1.20;;;8.60;98.20;;;;;;5070710;28;20490;-79
2024/02/23 08:42:12;;;;;;;1.60;1.20;;;8.90;98.20;;;;;;5058341;28;20473;-79
2024/02/23 08:44:40;;;;;;;1.60;1.20;;;9.10;98.20;;;;;;5042042;28;20597;-79
2024/02/23 08:47:07;;;;;;;1.60;1.27;;;9.20;98.20;;;;;;5044987;28;21027;-79
2024/02/23 08:49:34;;;;;;;1.60;1.17;;;9.40;98.20;;;;;;5056050;28;20470;-80
2024/02/23 08:52:02;;;;;;;1.60;1.30;;;9.50;98.20;;;;;;5032942;28;20482;-81
2024/02/23 08:54:29;;;;;;;1.60;1.10;;;9.50;98.20;;;;;;5045738;28;20513;-79
2024/02/23 08:56:56;;;;;;;1.60;1.10;;;9.50;98.20;;;;;;5041551;28;20503;-79
2024/02/23 08:59:26;;;;;;;1.57;1.00;;;9.40;98.20;;;;;;5063881;28;20587;-79
2024/02/23 09:01:53;;;;;;;1.57;1.20;;;9.20;98.20;;;;;;5046096;28;20484;-80
2024/02/23 09:04:20;;;;;;;1.60;1.20;;;9.10;98.20;;;;;;5047406;28;20479;-81
2024/02/23 09:06:50;;;;;;;1.60;1.30;;;9.00;98.20;;;;;;5041036;28;20923;-81
2024/02/23 09:09:16;;;;;;;1.70;1.60;;;8.90;98.20;;;;;;5064565;28;20458;-79
2024/02/23 09:11:44;;;;;;;1.60;1.20;;;8.80;98.20;;;;;;5044633;28;20553;-80
2024/02/23 09:14:13;;;;;;;1.57;1.13;;;8.80;98.20;;;;;;5045524;28;20988;-81
2024/02/23 09:16:42;;;;;;;1.53;1.17;;;8.80;98.20;;;;;;5041051;28;20502;-80
2024/02/23 09:19:09;;;;;;;1.60;1.20;;;8.80;98.20;;;;;;5043953;28;20490;-80
2024/02/23 09:21:45;;;;;;;1.60;1.30;;;8.80;98.20;;;;;;5039519;28;20484;-79
2024/02/23 09:24:12;;;;;;;1.60;1.30;;;8.90;98.20;;;;;;5055406;28;20561;-80
2024/02/23 09:26:40;;;;;;;1.53;1.10;;;8.90;98.20;;;;;;5037511;28;20481;-81
2024/02/23 09:29:09;;;;;;;1.60;1.10;;;9.00;98.20;;;;;;5055372;28;20524;-81
2024/02/23 09:31:35;;;;;;;1.60;1.10;;;9.10;98.20;;;;;;5025977;28;20646;-78
2024/02/23 09:34:15;;;;;;;1.50;1.10;;;9.20;98.20;;;;;;5045775;28;20496;-78
2024/02/23 09:36:51;;;;;;;1.60;1.10;;;9.30;98.20;;;;;;5040790;28;20544;-80
2024/02/23 09:39:18;;;;;;;1.53;1.10;;;9.40;98.20;;;;;;5051941;28;20487;-80
2024/02/23 09:41:45;;;;;;;1.60;1.30;;;9.40;98.20;;;;;;5031729;28;20914;-80
2024/02/23 09:44:14;;;;;;;1.50;1.10;;;9.40;98.20;;;;;;5043855;28;20561;-80
2024/02/23 09:46:44;;;;;;;1.50;1.10;;;9.40;98.20;;;;;;5044729;28;20750;-79
2024/02/23 09:49:14;;;;;;;1.57;1.17;;;9.40;98.20;;;;;;5054273;28;20493;-79
2024/02/23 09:51:41;;;;;;;1.60;1.20;;;9.40;98.20;;;;;;5030104;28;20519;-80
2024/02/23 09:54:08;;;;;;;1.60;1.20;;;9.40;98.20;;;;;;5046650;28;20556;-80
2024/02/23 09:56:37;;;;;;;1.60;1.30;;;9.40;98.20;;;;;;5036706;28;20489;-82
2024/02/23 09:59:04;;;;;;;1.57;1.10;;;9.40;98.20;;;;;;5048829;28;20573;-82
2024/02/23 10:01:33;;;;;;;1.53;1.10;;;9.50;98.20;;;;;;5041752;28;20577;-79
2024/02/23 10:04:04;;;;;;;1.57;1.10;;;9.50;98.20;;;;;;5052343;28;20466;-80
2024/02/23 10:06:32;;;;;;;1.57;1.10;;;9.50;98.20;;;;;;5029060;28;20479;-80
2024/02/23 10:09:04;;;;;;;1.50;1.10;;;9.50;98.20;;;;;;5037826;28;20498;-80
2024/02/23 10:11:33;;;;;;;1.57;1.20;;;9.50;98.20;;;;;;5031788;28;20483;-80
2024/02/23 10:14:00;;;;;;;1.53;1.10;;;9.60;98.20;;;;;;5042227;28;20462;-81
2024/02/23 10:16:27;;;;;;;1.60;1.10;;;9.60;98.20;;;;;;5045644;28;20469;-82
2024/02/23 10:18:54;;;;;;;1.60;1.13;;;9.70;98.20;;;;;;5051760;28;20521;-80
2024/02/23 10:21:21;;;;;;;1.50;1.10;;;9.90;98.20;;;;;;5031906;28;20562;-82
2024/02/23 10:23:51;;;;;;;1.73;1.63;;;10.00;98.20;;;;;;5030150;28;20459;-78
2024/02/23 10:26:22;;;;;;;1.57;1.10;;;10.10;98.20;;;;;;5025827;28;20479;-81
2024/02/23 10:29:10;;;;;;;1.53;1.10;;;10.20;98.20;;;;;;5043917;28;20490;-81
2024/02/23 10:31:40;;;;;;;1.57;1.10;;;10.30;98.20;;;;;;5030430;28;20590;-80
2024/02/23 10:34:11;;;;;;;1.57;1.00;;;10.30;98.20;;;;;;5038622;28;20486;-80
2024/02/23 10:36:50;;;;;;;1.57;1.10;;;10.30;98.20;;;;;;5042655;28;20848;-81
2024/02/23 10:39:19;;;;;;;1.60;1.10;;;10.40;98.20;;;;;;5051466;28;20571;-81
2024/02/23 10:41:53;;;;;;;1.53;1.10;;;10.40;98.20;;;;;;5020883;28;20616;-81
2024/02/23 10:44:20;;;;;;;1.60;1.10;;;10.30;98.20;;;;;;5034521;28;20502;-78
2024/02/23 10:46:48;;;;;;;1.53;1.00;;;10.30;98.20;;;;;;5023454;28;20816;-77
2024/02/23 10:52:02;;;;;;;1.53;1.00;;;10.20;98.20;;;;;;5014779;28;20863;-79
2024/02/23 10:54:32;;;;;;;1.60;1.10;;;10.00;98.20;;;;;;5030872;28;20586;-80
2024/02/23 10:57:10;;;;;;;1.57;1.10;;;10.00;98.20;;;;;;5027362;28;20544;-81
2024/02/23 10:59:56;;;;;;;1.60;1.20;;;10.00;98.20;;;;;;5053295;28;21019;-79
2024/02/23 11:03:13;;;;;;;1.60;1.10;;;10.00;98.20;;;;;;5047665;28;20549;-79
2024/02/23 11:05:40;;;;;;;1.60;1.10;;;9.90;98.20;;;;;;5046759;28;20930;-78
2024/02/23 11:08:08;;;;;;;1.57;1.20;;;9.90;98.20;;;;;;5024976;28;20552;-81
2024/02/23 11:10:44;;;;;;;1.60;1.20;;;9.90;98.20;;;;;;5036537;28;20555;-81
2024/02/23 11:13:11;;;;;;;1.53;1.10;;;9.80;98.20;;;;;;5024889;28;20501;-80
2024/02/23 11:15:43;;;;;;;1.60;1.20;;;9.80;98.20;;;;;;5048168;28;20502;-80
2024/02/23 11:18:23;;;;;;;1.60;1.20;;;9.70;98.20;;;;;;5044098;28;20547;-80
2024/02/23 11:20:55;;;;;;;1.60;1.20;;;9.60;98.20;;;;;;5043359;28;20470;-81
2024/02/23 11:23:22;;;;;;;1.60;1.10;;;9.60;98.20;;;;;;5049747;28;20539;-79
2024/02/23 11:26:07;;;;;;;1.60;1.20;;;9.50;98.20;;;;;;5037832;28;20493;-80
2024/02/23 11:28:34;;;;;;;1.57;1.10;;;9.50;98.20;;;;;;5027945;28;20454;-78
2024/02/23 11:31:03;;;;;;;1.60;1.10;;;9.50;98.20;;;;;;5017541;28;20550;-79
2024/02/23 11:33:30;;;;;;;1.57;1.10;;;9.60;98.20;;;;;;5033409;28;20843;-79
2024/02/23 11:36:06;;;;;;;1.57;1.10;;;9.60;98.20;;;;;;5039263;28;20482;-79
2024/02/23 11:38:33;;;;;;;1.60;1.10;;;9.70;98.20;;;;;;5053224;28;21024;-79
2024/02/23 11:41:03;;;;;;;1.50;1.00;;;9.80;98.20;;;;;;5038572;28;20508;-78
2024/02/23 11:43:30;;;;;;;1.50;1.10;;;9.80;98.20;;;;;;5054602;28;21095;-81
2024/02/23 11:46:00;;;;;;;1.57;1.10;;;9.90;98.20;;;;;;5039705;28;21210;-79
2024/02/23 11:48:26;;;;;;;1.57;1.10;;;9.90;98.20;;;;;;5051376;28;20478;-82
2024/02/23 11:50:54;;;;;;;1.60;1.10;;;10.00;98.20;;;;;;5039533;28;20470;-81
2024/02/23 11:53:21;;;;;;;1.50;1.10;;;10.00;98.20;;;;;;5050919;28;20501;-78
2024/02/23 11:55:49;;;;;;;1.50;1.03;;;10.10;98.20;;;;;;5045251;28;20510;-79
2024/02/23 11:58:18;;;;;;;1.50;1.00;;;10.10;98.20;;;;;;5033630;28;20467;-80
2024/02/23 12:00:46;;;;;;;1.57;1.07;;;10.20;98.20;;;;;;5055827;28;20530;-79
2024/02/23 12:03:13;;;;;;;1.57;1.00;;;10.10;98.20;;;;;;5026515;28;21003;-81
2024/02/23 12:05:40;;;;;;;1.60;1.10;;;10.10;98.20;;;;;;5047192;28;20482;-79
2024/02/23 12:08:07;;;;;;;1.53;1.10;;;10.10;98.20;;;;;;5041874;28;20486;-81
2024/02/23 12:10:34;;;;;;;1.53;1.00;;;10.10;98.20;;;;;;5039087;28;20567;-79
2024/02/23 12:13:01;;;;;;;1.53;1.10;;;10.10;98.20;;;;;;5037911;28;20566;-80
2024/02/23 12:15:30;;;;;;;1.50;1.10;;;10.10;98.20;;;;;;5035250;28;20493;-81
2024/02/23 12:18:00;;;;;;;1.50;1.10;;;10.10;98.20;;;;;;5040318;28;20473;-80
2024/02/23 12:20:27;;;;;;;1.53;1.10;;;10.10;98.20;;;;;;5045241;28;21174;-80
2024/02/23 12:22:56;;;;;;;1.60;1.10;;;10.00;98.20;;;;;;5035155;28;20490;-79
2024/02/23 12:25:23;;;;;;;1.53;1.00;;;10.00;98.20;;;;;;5039129;28;20549;-81
2024/02/23 12:27:55;;;;;;;1.60;1.10;;;9.90;98.20;;;;;;5043120;28;20680;-79
2024/02/23 12:30:24;;;;;;;1.57;1.10;;;9.90;98.20;;;;;;5047816;28;20459;-80
2024/02/23 12:32:52;;;;;;;1.50;1.10;;;9.90;98.20;;;;;;5041783;28;20509;-81
2024/02/23 12:35:19;;;;;;;1.60;1.20;;;9.90;98.20;;;;;;5054621;28;21227;-79
2024/02/23 12:37:46;;;;;;;1.50;1.10;;;9.90;98.20;;;;;;5030790;28;20508;-80
2024/02/23 12:40:13;;;;;;;1.53;1.10;;;10.00;98.20;;;;;;5032362;28;20497;-80
2024/02/23 12:42:40;;;;;;;1.50;1.10;;;10.10;98.20;;;;;;5031194;28;20513;-80
2024/02/23 12:45:11;;;;;;;1.53;1.10;;;10.30;98.20;;;;;;5545477;22;20465;-80
2024/02/23 12:47:38;;;;;;;1.57;1.07;;;10.40;98.20;;;;;;5029049;28;20489;-79
2024/02/23 12:50:09;;;;;;;1.53;1.10;;;10.50;98.20;;;;;;5042781;28;20493;-80
2024/02/23 12:52:48;;;;;;;1.60;1.10;;;10.60;98.20;;;;;;5016786;28;20487;-79
2024/02/23 12:55:15;;;;;;;1.50;1.10;;;10.70;98.20;;;;;;5063772;23;20565;-79
2024/02/23 12:57:43;;;;;;;1.60;1.13;;;10.70;98.20;;;;;;5014580;28;21042;-81
2024/02/23 13:00:11;;;;;;;1.60;1.10;;;10.70;98.20;;;;;;5049350;28;20488;-80
2024/02/23 13:02:37;;;;;;;1.53;1.10;;;10.80;98.20;;;;;;5038631;28;20486;-80
2024/02/23 13:05:06;;;;;;;1.60;1.10;;;10.80;98.20;;;;;;5040768;28;20518;-80
2024/02/23 13:07:33;;;;;;;1.60;1.10;;;10.80;98.20;;;;;;5013803;28;20487;-81
2024/02/23 13:10:00;;;;;;;1.60;1.20;;;10.80;98.20;;;;;;5042067;28;20462;-81
2024/02/23 13:12:36;;;;;;;1.53;1.10;;;10.80;98.00;;;;;;5033873;28;20502;-81
2024/02/23 13:15:06;;;;;;;1.60;1.20;;;10.70;97.80;;;;;;5041378;28;20489;-80
2024/02/23 13:17:33;;;;;;;1.53;1.10;;;10.70;98.20;;;;;;5037628;28;20584;-80
2024/02/23 13:20:00;;;;;;;1.60;1.20;;;10.70;98.20;;;;;;5047207;28;20881;-79
2024/02/23 13:22:29;;;;;;;1.57;1.10;;;10.80;98.10;;;;;;5018657;28;20476;-79
2024/02/23 13:24:56;;;;;;;1.57;1.10;;;10.80;97.90;;;;;;5049399;28;20512;-79
2024/02/23 13:27:23;;;;;;;1.57;1.10;;;10.80;98.20;;;;;;5024817;28;20464;-79
2024/02/23 13:29:50;;;;;;;1.60;1.10;;;10.80;98.20;;;;;;5039317;28;21032;-80
2024/02/23 13:32:17;;;;;;;1.57;1.10;;;10.80;98.20;;;;;;5014327;28;20479;-80
2024/02/23 13:34:44;;;;;;;1.53;1.07;;;10.80;98.00;;;;;;5040267;28;20477;-81
2024/02/23 13:37:11;;;;;;;1.50;1.00;;;10.80;98.20;;;;;;5022484;28;20514;-81
2024/02/23 13:39:44;;;;;;;1.57;1.10;;;10.70;97.50;;;;;;5037829;28;20493;-80
2024/02/23 13:42:11;;;;;;;1.60;1.10;;;10.70;98.20;;;;;;5031047;28;20482;-80
2024/02/23 13:44:41;;;;;;;1.50;1.10;;;10.80;97.70;;;;;;5048274;28;20487;-79
2024/02/23 13:47:12;;;;;;;1.53;1.10;;;10.80;97.90;;;;;;5021241;28;20485;-80
2024/02/23 13:49:42;;;;;;;1.53;1.10;;;10.90;97.50;;;;;;5047618;28;20528;-81
2024/02/23 13:52:09;;;;;;;1.53;1.10;;;10.80;97.20;;;;;;5023266;28;20512;-81
2024/02/23 13:54:37;;;;;;;1.53;1.10;;;10.90;97.10;;;;;;5037922;28;20516;-81
2024/02/23 13:57:34;;;;;;;1.50;1.10;;;10.90;96.40;;;;;;5033033;28;20590;-80
2024/02/23 14:00:01;;;;;;;1.60;1.20;;;10.80;96.90;;;;;;5044329;28;20540;-81
2024/02/23 14:02:28;;;;;;;1.53;1.10;;;10.80;97.20;;;;;;5020592;28;20479;-81
2024/02/23 14:05:05;;;;;;;1.60;1.10;;;10.80;98.20;;;;;;5040743;28;20555;-80
2024/02/23 14:07:38;;;;;;;1.53;1.10;;;10.80;97.30;;;;;;5025382;28;20485;-80
2024/02/23 14:10:07;;;;;;;1.53;1.10;;;10.80;97.30;;;;;;5046612;28;20459;-80
2024/02/23 14:12:36;;;;;;;1.60;1.20;;;10.80;98.20;;;;;;5033718;28;20478;-80
2024/02/23 14:15:06;;;;;;;1.57;1.10;;;10.70;98.20;;;;;;5044122;28;20963;-80
2024/02/23 14:17:33;;;;;;;1.53;1.00;;;10.70;98.20;;;;;;5018594;28;20491;-78
2024/02/23 14:20:03;;;;;;;1.60;1.20;;;10.70;98.20;;;;;;5043115;28;20499;-80
2024/02/23 14:22:33;;;;;;;1.50;1.10;;;10.60;97.90;;;;;;5038812;28;20528;-81
2024/02/23 14:25:00;;;;;;;1.57;1.10;;;10.60;98.20;;;;;;5043658;28;20482;-79
2024/02/23 14:27:28;;;;;;;1.53;1.10;;;10.60;98.20;;;;;;5033213;28;20599;-79
2024/02/23 14:29:56;;;;;;;1.57;1.10;;;10.60;98.20;;;;;;5026648;28;20463;-80
2024/02/23 14:32:25;;;;;;;1.53;1.10;;;10.50;98.20;;;;;;5017114;28;20487;-79
2024/02/23 14:34:51;;;;;;;1.53;1.07;;;10.50;98.20;;;;;;5019114;28;20552;-79
2024/02/23 14:37:18;;;;;;;1.57;1.10;;;10.50;98.20;;;;;;5017815;28;20493;-80
2024/02/23 14:39:45;;;;;;;1.57;1.10;;;10.50;98.20;;;;;;5042435;28;20515;-81
2024/02/23 14:42:14;;;;;;;1.60;1.30;;;10.60;98.20;;;;;;5031297;28;20491;-80
2024/02/23 14:44:41;;;;;;;1.50;1.03;;;10.50;98.20;;;;;;5046497;28;20769;-80
2024/02/23 14:47:09;;;;;;;1.50;1.10;;;10.50;98.20;;;;;;5034959;28;20596;-79
2024/02/23 14:49:36;;;;;;;1.53;1.10;;;10.50;98.20;;;;;;5045799;28;20810;-80
2024/02/23 14:52:04;;;;;;;1.60;1.10;;;10.50;98.20;;;;;;5022486;28;20477;-80
2024/02/23 14:54:32;;;;;;;1.60;1.20;;;10.50;98.20;;;;;;5037598;28;20509;-80
2024/02/23 14:57:00;;;;;;;1.60;1.20;;;10.40;98.20;;;;;;5035298;28;20517;-81
2024/02/23 14:59:27;;;;;;;1.60;1.20;;;10.30;98.20;;;;;;5044920;28;20585;-83
2024/02/23 15:01:53;;;;;;;1.50;1.10;;;10.20;98.20;;;;;;5031744;28;20577;-82
2024/02/23 15:04:22;;;;;;;1.60;1.20;;;10.20;98.20;;;;;;5040594;28;20863;-83
2024/02/23 15:06:49;;;;;;;1.53;1.10;;;10.10;98.20;;;;;;5024854;28;20543;-82
2024/02/23 15:09:16;;;;;;;1.50;1.07;;;10.00;98.20;;;;;;5043717;28;20570;-82
2024/02/23 15:11:46;;;;;;;1.60;1.20;;;9.90;98.20;;;;;;5022763;28;20551;-83
2024/02/23 15:14:15;;;;;;;1.60;1.20;;;9.80;98.20;;;;;;5031735;28;20526;-83
2024/02/23 15:16:42;;;;;;;1.53;1.13;;;9.80;98.20;;;;;;5021742;28;20515;-81
2024/02/23 15:19:10;;;;;;;1.57;1.20;;;9.70;98.20;;;;;;5029641;28;21000;-81
2024/02/23 15:21:42;;;;;;;1.60;1.20;;;9.60;98.20;;;;;;5021729;28;20549;-83
2024/02/23 15:24:09;;;;;;;1.60;1.20;;;9.60;98.20;;;;;;5031319;28;20498;-83
2024/02/23 15:26:36;;;;;;;1.60;1.13;;;9.50;98.20;;;;;;5026855;28;20562;-82
2024/02/23 15:29:10;;;;;;;1.57;1.17;;;9.50;98.20;;;;;;5033063;28;20521;-84
2024/02/23 15:34:30;;;;;;;1.53;1.10;;;9.40;98.20;;;;;;5028956;28;20591;-83
2024/02/23 15:37:03;;;;;;;1.53;1.10;;;9.30;98.20;;;;;;5028521;28;20474;-83
2024/02/23 15:39:30;;;;;;;1.53;1.20;;;9.20;98.20;;;;;;5044981;28;20470;-85
2024/02/23 15:42:02;;;;;;;1.50;1.20;;;9.20;98.20;;;;;;5014131;28;20522;-83
2024/02/23 15:44:31;;;;;;;1.60;1.20;;;9.20;98.20;;;;;;5028553;28;20493;-84
2024/02/23 15:46:58;;;;;;;1.53;1.10;;;9.20;98.20;;;;;;5018892;28;20618;-86
2024/02/23 15:49:28;;;;;;;1.53;1.10;;;9.30;98.20;;;;;;5034534;28;20473;-83
2024/02/23 15:51:55;;;;;;;1.57;1.20;;;9.20;98.20;;;;;;5020402;28;20484;-82
2024/02/23 15:54:23;;;;;;;1.50;1.10;;;9.20;98.20;;;;;;5032171;28;20519;-82
2024/02/23 15:56:50;;;;;;;1.50;1.17;;;9.10;98.20;;;;;;5035187;28;20475;-81
2024/02/23 15:59:17;;;;;;;1.57;1.20;;;9.10;98.20;;;;;;5051196;28;20461;-80
2024/02/23 16:01:47;;;;;;;1.50;1.10;;;9.00;98.20;;;;;;5026075;28;21046;-83
2024/02/23 16:04:14;;;;;;;1.57;1.10;;;9.00;98.20;;;;;;5029319;28;20569;-82
2024/02/23 16:06:41;;;;;;;1.60;1.27;;;9.00;98.20;;;;;;5032830;28;20601;-81
2024/02/23 16:09:09;;;;;;;1.50;1.13;;;9.10;98.20;;;;;;5041218;28;20497;-81
2024/02/23 16:11:37;;;;;;;1.57;1.20;;;9.10;98.20;;;;;;5020460;28;20568;-81
2024/02/23 16:14:17;;;;;;;1.60;1.20;;;9.10;98.20;;;;;;5025484;28;20467;-85
2024/02/23 16:16:44;;;;;;;1.60;1.20;;;9.10;98.20;;;;;;5017073;28;20480;-80
2024/02/23 16:19:11;;;;;;;1.50;1.10;;;9.00;98.20;;;;;;5030202;28;20528;-82
2024/02/23 16:21:39;;;;;;;1.60;1.33;;;9.00;98.20;;;;;;5024227;28;20499;-81
2024/02/23 16:24:06;;;;;;;1.57;1.20;;;9.00;98.20;;;;;;5028653;28;20501;-82
2024/02/23 16:26:35;;;;;;;1.53;1.20;;;8.90;98.20;;;;;;5022551;28;20496;-80
2024/02/23 16:29:05;;;;;;;1.53;1.20;;;8.90;98.20;;;;;;5034281;28;20471;-81
2024/02/23 16:31:32;;;;;;;1.57;1.30;;;8.90;98.20;;;;;;5028787;28;20483;-81
2024/02/23 16:34:01;;;;;;;1.53;1.20;;;9.00;98.20;;;;;;5027644;28;20466;-81
2024/02/23 16:36:29;;;;;;;1.50;1.20;;;8.90;98.20;;;;;;5026100;28;20555;-79
2024/02/23 16:38:56;;;;;;;3.87;3.67;;;9.00;98.20;;;;;;5028238;28;20516;-79
2024/02/23 16:41:24;;;;;;;1.50;1.20;;;8.90;98.20;;;;;;5022942;28;20511;-81
2024/02/23 16:43:51;;;;;;;1.53;1.10;;;8.90;98.20;;;;;;5024892;28;20482;-81
2024/02/23 16:46:54;;;;;;;1.50;1.10;;;8.90;98.20;;;;;;5039593;28;20542;-79
2024/02/23 16:52:17;;;;;;;1.60;1.30;;;8.90;98.20;;;;;;5018912;28;20488;-80
2024/02/23 16:54:44;;;;;;;1.50;1.20;;;8.90;98.20;;;;;;5046155;28;20547;-80
2024/02/23 16:57:11;;;;;;;1.53;1.20;;;8.90;98.20;;;;;;5029514;28;20494;-80
2024/02/23 16:59:37;;;;;;;1.60;1.30;;;8.90;98.20;;;;;;5045488;28;20873;-82
2024/02/23 17:02:10;;;;;;;1.53;1.10;;;8.90;98.20;;;;;;5013532;28;20571;-80
2024/02/23 17:05:00;;;;;;;1.60;1.20;;;8.90;98.20;;;;;;5027910;28;20498;-79
2024/02/23 17:07:27;;;;;;;1.53;1.20;;;8.80;98.20;;;;;;5040766;28;21055;-80
2024/02/23 17:09:54;;;;;;;1.53;1.20;;;8.80;98.20;;;;;;5047186;28;21137;-80
2024/02/23 17:12:21;;;;;;;1.53;1.17;;;8.80;98.20;;;;;;5025053;28;20605;-80
2024/02/23 17:14:49;;;;;;;1.53;1.23;;;8.80;98.20;;;;;;5360905;23;20458;-81
2024/02/23 17:17:18;;;;;;;1.50;1.10;;;8.80;98.20;;;;;;5026132;28;20492;-81